sensor_id;sensor_type;location;lat;lon;timestamp;temperature;humidity
16271;DHT22;8243;49.048;8.396;2024-01-07T00:00:45;4.90;99.90
16271;DHT22;8243;49.048;8.396;2024-01-07T00:03:11;4.90;99.90
16271;DHT22;8243;49.048;8.396;2024-01-07T00:05:36;4.90;99.90
16271;DHT22;8243;49.048;8.396;2024-01-07T00:08:03;4.80;99.90
16271;DHT22;8243;49.048;8.396;2024-01-07T00:10:28;4.90;99.90
16271;DHT22;8243;49.048;8.396;2024-01-07T00:12:54;4.70;99.90
16271;DHT22;8243;49.048;8.396;2024-01-07T00:15:20;4.70;99.90
16271;DHT22;8243;49.048;8.396;2024-01-07T00:18:01;4.60;99.90
16271;DHT22;8243;49.048;8.396;2024-01-07T00:20:27;4.60;99.90
16271;DHT22;8243;49.048;8.396;2024-01-07T00:22:52;4.80;99.90
16271;DHT22;8243;49.048;8.396;2024-01-07T00:25:18;4.70;99.90
16271;DHT22;8243;49.048;8.396;2024-01-07T00:27:44;4.80;99.90
16271;DHT22;8243;49.048;8.396;2024-01-07T00:30:10;4.80;99.90
16271;DHT22;8243;49.048;8.396;2024-01-07T00:32:36;5.00;99.90
16271;DHT22;8243;49.048;8.396;2024-01-07T00:35:02;4.80;99.90
16271;DHT22;8243;49.048;8.396;2024-01-07T00:37:27;4.70;99.90
16271;DHT22;8243;49.048;8.396;2024-01-07T00:40:01;4.80;99.90
16271;DHT22;8243;49.048;8.396;2024-01-07T00:42:27;4.60;99.90
16271;DHT22;8243;49.048;8.396;2024-01-07T00:44:52;4.60;99.90
16271;DHT22;8243;49.048;8.396;2024-01-07T00:47:18;4.50;99.90
16271;DHT22;8243;49.048;8.396;2024-01-07T00:49:43;4.60;99.90
16271;DHT22;8243;49.048;8.396;2024-01-07T00:52:09;4.60;99.90
16271;DHT22;8243;49.048;8.396;2024-01-07T00:54:34;4.70;99.90
16271;DHT22;8243;49.048;8.396;2024-01-07T00:57:00;4.60;99.90
16271;DHT22;8243;49.048;8.396;2024-01-07T00:59:28;4.50;99.90
16271;DHT22;8243;49.048;8.396;2024-01-07T01:01:54;4.60;99.90
16271;DHT22;8243;49.048;8.396;2024-01-07T01:04:21;4.70;99.90
16271;DHT22;8243;49.048;8.396;2024-01-07T01:06:47;4.80;99.90
16271;DHT22;8243;49.048;8.396;2024-01-07T01:09:13;4.60;99.90
16271;DHT22;8243;49.048;8.396;2024-01-07T01:11:46;4.60;99.90
16271;DHT22;8243;49.048;8.396;2024-01-07T01:14:13;4.60;99.90
16271;DHT22;8243;49.048;8.396;2024-01-07T01:16:38;4.70;99.90
16271;DHT22;8243;49.048;8.396;2024-01-07T01:19:04;4.60;99.90
16271;DHT22;8243;49.048;8.396;2024-01-07T01:21:30;4.50;99.90
16271;DHT22;8243;49.048;8.396;2024-01-07T01:23:57;4.60;99.90
16271;DHT22;8243;49.048;8.396;2024-01-07T01:26:23;4.70;99.90
16271;DHT22;8243;49.048;8.396;2024-01-07T01:28:48;4.50;99.90
16271;DHT22;8243;49.048;8.396;2024-01-07T01:31:15;4.70;99.90
16271;DHT22;8243;49.048;8.396;2024-01-07T01:33:41;4.60;99.90
16271;DHT22;8243;49.048;8.396;2024-01-07T01:36:07;4.60;99.90
16271;DHT22;8243;49.048;8.396;2024-01-07T01:38:33;4.70;99.90
16271;DHT22;8243;49.048;8.396;2024-01-07T01:41:16;4.60;99.90
16271;DHT22;8243;49.048;8.396;2024-01-07T01:43:58;4.70;99.90
16271;DHT22;8243;49.048;8.396;2024-01-07T01:46:26;4.50;99.90
16271;DHT22;8243;49.048;8.396;2024-01-07T01:48:53;4.60;99.90
16271;DHT22;8243;49.048;8.396;2024-01-07T01:51:21;4.70;99.90
16271;DHT22;8243;49.048;8.396;2024-01-07T01:53:49;4.50;99.90
16271;DHT22;8243;49.048;8.396;2024-01-07T01:56:27;4.70;99.90
16271;DHT22;8243;49.048;8.396;2024-01-07T01:58:53;4.50;99.90
16271;DHT22;8243;49.048;8.396;2024-01-07T02:01:18;4.60;99.90
16271;DHT22;8243;49.048;8.396;2024-01-07T02:03:44;4.70;99.90
16271;DHT22;8243;49.048;8.396;2024-01-07T02:06:10;4.60;99.90
16271;DHT22;8243;49.048;8.396;2024-01-07T02:08:38;4.50;99.90
16271;DHT22;8243;49.048;8.396;2024-01-07T02:11:20;4.60;99.90
16271;DHT22;8243;49.048;8.396;2024-01-07T02:13:46;4.60;99.90
16271;DHT22;8243;49.048;8.396;2024-01-07T02:16:12;4.40;99.90
16271;DHT22;8243;49.048;8.396;2024-01-07T02:18:40;4.60;99.90
16271;DHT22;8243;49.048;8.396;2024-01-07T02:21:07;4.40;99.90
16271;DHT22;8243;49.048;8.396;2024-01-07T02:23:33;4.70;99.90
16271;DHT22;8243;49.048;8.396;2024-01-07T02:25:58;4.50;99.90
16271;DHT22;8243;49.048;8.396;2024-01-07T02:28:25;4.50;99.90
16271;DHT22;8243;49.048;8.396;2024-01-07T02:30:51;4.40;99.90
16271;DHT22;8243;49.048;8.396;2024-01-07T02:33:17;4.50;99.90
16271;DHT22;8243;49.048;8.396;2024-01-07T02:36:03;4.70;99.90
16271;DHT22;8243;49.048;8.396;2024-01-07T02:38:35;4.30;99.90
16271;DHT22;8243;49.048;8.396;2024-01-07T02:41:01;4.50;99.90
16271;DHT22;8243;49.048;8.396;2024-01-07T02:43:27;4.50;99.90
16271;DHT22;8243;49.048;8.396;2024-01-07T02:46:00;4.60;99.90
16271;DHT22;8243;49.048;8.396;2024-01-07T02:48:25;4.50;99.90
16271;DHT22;8243;49.048;8.396;2024-01-07T02:50:51;4.60;99.90
16271;DHT22;8243;49.048;8.396;2024-01-07T02:53:18;4.50;99.90
16271;DHT22;8243;49.048;8.396;2024-01-07T02:55:46;4.70;99.90
16271;DHT22;8243;49.048;8.396;2024-01-07T02:58:13;4.60;99.90
16271;DHT22;8243;49.048;8.396;2024-01-07T03:00:39;4.60;99.90
16271;DHT22;8243;49.048;8.396;2024-01-07T03:03:10;4.50;99.90
16271;DHT22;8243;49.048;8.396;2024-01-07T03:05:35;4.40;99.90
16271;DHT22;8243;49.048;8.396;2024-01-07T03:08:01;4.40;99.90
16271;DHT22;8243;49.048;8.396;2024-01-07T03:10:26;4.70;99.90
16271;DHT22;8243;49.048;8.396;2024-01-07T03:12:52;4.50;99.90
16271;DHT22;8243;49.048;8.396;2024-01-07T03:15:17;4.40;99.90
16271;DHT22;8243;49.048;8.396;2024-01-07T03:17:43;4.60;99.90
16271;DHT22;8243;49.048;8.396;2024-01-07T03:20:10;4.60;99.90
16271;DHT22;8243;49.048;8.396;2024-01-07T03:22:35;4.30;99.90
16271;DHT22;8243;49.048;8.396;2024-01-07T03:25:11;4.50;99.90
16271;DHT22;8243;49.048;8.396;2024-01-07T03:27:39;4.50;99.90
16271;DHT22;8243;49.048;8.396;2024-01-07T03:30:12;4.50;99.90
16271;DHT22;8243;49.048;8.396;2024-01-07T03:32:37;4.50;99.90
16271;DHT22;8243;49.048;8.396;2024-01-07T03:35:03;4.40;99.90
16271;DHT22;8243;49.048;8.396;2024-01-07T03:37:31;4.60;99.90
16271;DHT22;8243;49.048;8.396;2024-01-07T03:39:57;4.40;99.90
16271;DHT22;8243;49.048;8.396;2024-01-07T03:42:22;4.40;99.90
16271;DHT22;8243;49.048;8.396;2024-01-07T03:44:49;4.50;99.90
16271;DHT22;8243;49.048;8.396;2024-01-07T03:47:16;4.40;99.90
16271;DHT22;8243;49.048;8.396;2024-01-07T03:49:53;4.50;99.90
16271;DHT22;8243;49.048;8.396;2024-01-07T03:52:20;4.40;99.90
16271;DHT22;8243;49.048;8.396;2024-01-07T03:54:46;4.50;99.90
16271;DHT22;8243;49.048;8.396;2024-01-07T03:57:12;4.60;99.90
16271;DHT22;8243;49.048;8.396;2024-01-07T03:59:44;4.50;99.90
16271;DHT22;8243;49.048;8.396;2024-01-07T04:02:09;4.30;99.90
16271;DHT22;8243;49.048;8.396;2024-01-07T04:04:43;4.50;99.90
16271;DHT22;8243;49.048;8.396;2024-01-07T04:07:22;4.40;99.90
16271;DHT22;8243;49.048;8.396;2024-01-07T04:09:48;4.60;99.90
16271;DHT22;8243;49.048;8.396;2024-01-07T04:12:24;4.40;99.90
16271;DHT22;8243;49.048;8.396;2024-01-07T04:14:49;4.50;99.90
16271;DHT22;8243;49.048;8.396;2024-01-07T04:17:15;4.60;99.90
16271;DHT22;8243;49.048;8.396;2024-01-07T04:19:52;4.60;99.90
16271;DHT22;8243;49.048;8.396;2024-01-07T04:22:17;4.60;99.90
16271;DHT22;8243;49.048;8.396;2024-01-07T04:24:43;4.40;99.90
16271;DHT22;8243;49.048;8.396;2024-01-07T04:27:10;4.60;99.90
16271;DHT22;8243;49.048;8.396;2024-01-07T04:29:39;4.30;99.90
16271;DHT22;8243;49.048;8.396;2024-01-07T04:32:05;4.40;99.90
16271;DHT22;8243;49.048;8.396;2024-01-07T04:34:31;4.40;99.90
16271;DHT22;8243;49.048;8.396;2024-01-07T04:36:56;4.50;99.90
16271;DHT22;8243;49.048;8.396;2024-01-07T04:39:22;4.40;99.90
16271;DHT22;8243;49.048;8.396;2024-01-07T04:41:47;4.40;99.90
16271;DHT22;8243;49.048;8.396;2024-01-07T04:44:22;4.30;99.90
16271;DHT22;8243;49.048;8.396;2024-01-07T04:46:48;4.40;99.90
16271;DHT22;8243;49.048;8.396;2024-01-07T04:49:18;4.40;99.90
16271;DHT22;8243;49.048;8.396;2024-01-07T04:51:43;4.30;99.90
16271;DHT22;8243;49.048;8.396;2024-01-07T04:54:09;4.40;99.90
16271;DHT22;8243;49.048;8.396;2024-01-07T04:56:40;4.30;99.90
16271;DHT22;8243;49.048;8.396;2024-01-07T05:02:20;4.40;99.90
16271;DHT22;8243;49.048;8.396;2024-01-07T05:04:53;4.30;99.90
16271;DHT22;8243;49.048;8.396;2024-01-07T05:07:22;4.40;99.90
16271;DHT22;8243;49.048;8.396;2024-01-07T05:09:47;4.50;99.90
16271;DHT22;8243;49.048;8.396;2024-01-07T05:12:13;4.50;99.90
16271;DHT22;8243;49.048;8.396;2024-01-07T05:14:39;4.60;99.90
16271;DHT22;8243;49.048;8.396;2024-01-07T05:17:06;4.60;99.90
16271;DHT22;8243;49.048;8.396;2024-01-07T05:19:43;4.50;99.90
16271;DHT22;8243;49.048;8.396;2024-01-07T05:22:09;4.40;99.90
16271;DHT22;8243;49.048;8.396;2024-01-07T05:24:45;4.60;99.90
16271;DHT22;8243;49.048;8.396;2024-01-07T05:27:12;4.50;99.90
16271;DHT22;8243;49.048;8.396;2024-01-07T05:29:38;4.60;99.90
16271;DHT22;8243;49.048;8.396;2024-01-07T05:32:04;4.50;99.90
16271;DHT22;8243;49.048;8.396;2024-01-07T05:34:36;4.40;99.90
16271;DHT22;8243;49.048;8.396;2024-01-07T05:37:01;4.40;99.90
16271;DHT22;8243;49.048;8.396;2024-01-07T05:39:35;4.50;99.90
16271;DHT22;8243;49.048;8.396;2024-01-07T05:42:01;4.40;99.90
16271;DHT22;8243;49.048;8.396;2024-01-07T05:44:27;4.40;99.90
16271;DHT22;8243;49.048;8.396;2024-01-07T05:47:15;4.50;99.90
16271;DHT22;8243;49.048;8.396;2024-01-07T05:49:48;4.60;99.90
16271;DHT22;8243;49.048;8.396;2024-01-07T05:52:16;4.50;99.90
16271;DHT22;8243;49.048;8.396;2024-01-07T05:54:47;4.60;99.90
16271;DHT22;8243;49.048;8.396;2024-01-07T05:57:14;4.30;99.90
16271;DHT22;8243;49.048;8.396;2024-01-07T05:59:39;4.40;99.90
16271;DHT22;8243;49.048;8.396;2024-01-07T06:02:06;4.50;99.90
16271;DHT22;8243;49.048;8.396;2024-01-07T06:04:31;4.50;99.90
16271;DHT22;8243;49.048;8.396;2024-01-07T06:06:57;4.40;99.90
16271;DHT22;8243;49.048;8.396;2024-01-07T06:09:43;4.30;99.90
16271;DHT22;8243;49.048;8.396;2024-01-07T06:12:09;4.50;99.90
16271;DHT22;8243;49.048;8.396;2024-01-07T06:14:35;4.40;99.90
16271;DHT22;8243;49.048;8.396;2024-01-07T06:17:00;4.60;99.90
16271;DHT22;8243;49.048;8.396;2024-01-07T06:19:26;4.60;99.90
16271;DHT22;8243;49.048;8.396;2024-01-07T06:21:51;4.60;99.90
16271;DHT22;8243;49.048;8.396;2024-01-07T06:24:17;4.50;99.90
16271;DHT22;8243;49.048;8.396;2024-01-07T06:26:43;4.50;99.90
16271;DHT22;8243;49.048;8.396;2024-01-07T06:29:09;4.40;99.90
16271;DHT22;8243;49.048;8.396;2024-01-07T06:31:35;4.70;99.90
16271;DHT22;8243;49.048;8.396;2024-01-07T06:34:00;4.50;99.90
16271;DHT22;8243;49.048;8.396;2024-01-07T06:36:26;4.60;99.90
16271;DHT22;8243;49.048;8.396;2024-01-07T06:38:53;4.50;99.90
16271;DHT22;8243;49.048;8.396;2024-01-07T06:41:18;4.40;99.90
16271;DHT22;8243;49.048;8.396;2024-01-07T06:43:46;4.60;99.90
16271;DHT22;8243;49.048;8.396;2024-01-07T06:46:14;4.50;99.90
16271;DHT22;8243;49.048;8.396;2024-01-07T06:48:41;4.50;99.90
16271;DHT22;8243;49.048;8.396;2024-01-07T06:51:07;4.70;99.90
16271;DHT22;8243;49.048;8.396;2024-01-07T06:53:32;4.50;99.90
16271;DHT22;8243;49.048;8.396;2024-01-07T06:55:58;4.50;99.90
16271;DHT22;8243;49.048;8.396;2024-01-07T06:58:24;4.50;99.90
16271;DHT22;8243;49.048;8.396;2024-01-07T07:01:03;4.50;99.90
16271;DHT22;8243;49.048;8.396;2024-01-07T07:03:33;4.60;99.90
16271;DHT22;8243;49.048;8.396;2024-01-07T07:05:59;4.60;99.90
16271;DHT22;8243;49.048;8.396;2024-01-07T07:08:24;4.70;99.90
16271;DHT22;8243;49.048;8.396;2024-01-07T07:10:50;4.50;99.90
16271;DHT22;8243;49.048;8.396;2024-01-07T07:13:16;4.50;99.90
16271;DHT22;8243;49.048;8.396;2024-01-07T07:15:42;4.80;99.90
16271;DHT22;8243;49.048;8.396;2024-01-07T07:18:08;4.60;99.90
16271;DHT22;8243;49.048;8.396;2024-01-07T07:20:33;4.70;99.90
16271;DHT22;8243;49.048;8.396;2024-01-07T07:22:59;4.70;99.90
16271;DHT22;8243;49.048;8.396;2024-01-07T07:25:24;4.70;99.90
16271;DHT22;8243;49.048;8.396;2024-01-07T07:27:50;4.60;99.90
16271;DHT22;8243;49.048;8.396;2024-01-07T07:30:16;4.70;99.90
16271;DHT22;8243;49.048;8.396;2024-01-07T07:32:41;4.60;99.90
16271;DHT22;8243;49.048;8.396;2024-01-07T07:35:07;4.50;99.90
16271;DHT22;8243;49.048;8.396;2024-01-07T07:37:33;4.80;99.90
16271;DHT22;8243;49.048;8.396;2024-01-07T07:39:59;4.60;99.90
16271;DHT22;8243;49.048;8.396;2024-01-07T07:42:24;4.70;99.90
16271;DHT22;8243;49.048;8.396;2024-01-07T07:44:50;4.70;99.90
16271;DHT22;8243;49.048;8.396;2024-01-07T07:47:16;4.70;99.90
16271;DHT22;8243;49.048;8.396;2024-01-07T07:49:42;4.60;99.90
16271;DHT22;8243;49.048;8.396;2024-01-07T07:52:08;4.60;99.90
16271;DHT22;8243;49.048;8.396;2024-01-07T07:54:39;4.70;99.90
16271;DHT22;8243;49.048;8.396;2024-01-07T07:57:28;4.60;99.90
16271;DHT22;8243;49.048;8.396;2024-01-07T07:59:56;4.80;99.90
16271;DHT22;8243;49.048;8.396;2024-01-07T08:02:30;4.60;99.90
16271;DHT22;8243;49.048;8.396;2024-01-07T08:07:59;4.80;99.90
16271;DHT22;8243;49.048;8.396;2024-01-07T08:10:27;4.70;99.90
16271;DHT22;8243;49.048;8.396;2024-01-07T08:13:21;4.80;99.90
16271;DHT22;8243;49.048;8.396;2024-01-07T08:15:52;4.70;99.90
16271;DHT22;8243;49.048;8.396;2024-01-07T08:18:21;4.70;99.90
16271;DHT22;8243;49.048;8.396;2024-01-07T08:20:47;4.80;99.90
16271;DHT22;8243;49.048;8.396;2024-01-07T08:23:18;4.80;99.90
16271;DHT22;8243;49.048;8.396;2024-01-07T08:25:58;5.00;99.90
16271;DHT22;8243;49.048;8.396;2024-01-07T08:28:23;4.80;99.90
16271;DHT22;8243;49.048;8.396;2024-01-07T08:30:49;4.80;99.90
16271;DHT22;8243;49.048;8.396;2024-01-07T08:33:16;4.80;99.90
16271;DHT22;8243;49.048;8.396;2024-01-07T08:35:42;4.90;99.90
16271;DHT22;8243;49.048;8.396;2024-01-07T08:38:08;5.00;99.90
16271;DHT22;8243;49.048;8.396;2024-01-07T08:40:33;4.90;99.90
16271;DHT22;8243;49.048;8.396;2024-01-07T08:42:59;4.90;99.90
16271;DHT22;8243;49.048;8.396;2024-01-07T08:45:24;4.90;99.90
16271;DHT22;8243;49.048;8.396;2024-01-07T08:47:50;4.90;99.90
16271;DHT22;8243;49.048;8.396;2024-01-07T08:50:15;4.90;99.90
16271;DHT22;8243;49.048;8.396;2024-01-07T08:52:41;5.20;99.90
16271;DHT22;8243;49.048;8.396;2024-01-07T08:55:07;5.00;99.90
16271;DHT22;8243;49.048;8.396;2024-01-07T08:57:35;5.00;99.90
16271;DHT22;8243;49.048;8.396;2024-01-07T09:00:00;5.10;99.90
16271;DHT22;8243;49.048;8.396;2024-01-07T09:02:26;5.00;99.90
16271;DHT22;8243;49.048;8.396;2024-01-07T09:04:52;5.20;99.90
16271;DHT22;8243;49.048;8.396;2024-01-07T09:07:17;5.00;99.90
16271;DHT22;8243;49.048;8.396;2024-01-07T09:09:44;5.10;99.90
16271;DHT22;8243;49.048;8.396;2024-01-07T09:12:10;4.90;99.90
16271;DHT22;8243;49.048;8.396;2024-01-07T09:14:37;5.10;99.90
16271;DHT22;8243;49.048;8.396;2024-01-07T09:17:03;5.30;99.90
16271;DHT22;8243;49.048;8.396;2024-01-07T09:19:28;5.00;99.90
16271;DHT22;8243;49.048;8.396;2024-01-07T09:21:54;5.30;99.90
16271;DHT22;8243;49.048;8.396;2024-01-07T09:24:19;5.10;99.90
16271;DHT22;8243;49.048;8.396;2024-01-07T09:26:45;5.10;99.90
16271;DHT22;8243;49.048;8.396;2024-01-07T09:29:11;5.30;99.90
16271;DHT22;8243;49.048;8.396;2024-01-07T09:31:37;5.10;99.90
16271;DHT22;8243;49.048;8.396;2024-01-07T09:34:03;5.10;99.90
16271;DHT22;8243;49.048;8.396;2024-01-07T09:36:29;4.80;99.90
16271;DHT22;8243;49.048;8.396;2024-01-07T09:38:55;5.30;99.90
16271;DHT22;8243;49.048;8.396;2024-01-07T09:41:20;5.20;99.90
16271;DHT22;8243;49.048;8.396;2024-01-07T09:43:46;5.30;99.90
16271;DHT22;8243;49.048;8.396;2024-01-07T09:46:13;5.20;99.90
16271;DHT22;8243;49.048;8.396;2024-01-07T09:48:39;5.30;99.90
16271;DHT22;8243;49.048;8.396;2024-01-07T09:51:06;5.40;99.90
16271;DHT22;8243;49.048;8.396;2024-01-07T09:53:35;5.00;99.90
16271;DHT22;8243;49.048;8.396;2024-01-07T09:56:19;5.50;99.90
16271;DHT22;8243;49.048;8.396;2024-01-07T09:58:46;5.60;99.90
16271;DHT22;8243;49.048;8.396;2024-01-07T10:01:18;5.60;99.90
16271;DHT22;8243;49.048;8.396;2024-01-07T10:03:44;5.60;99.90
16271;DHT22;8243;49.048;8.396;2024-01-07T10:06:13;5.50;99.90
16271;DHT22;8243;49.048;8.396;2024-01-07T10:08:43;5.40;99.90
16271;DHT22;8243;49.048;8.396;2024-01-07T10:11:08;5.70;99.90
16271;DHT22;8243;49.048;8.396;2024-01-07T10:13:34;5.50;99.90
16271;DHT22;8243;49.048;8.396;2024-01-07T10:16:00;5.50;99.90
16271;DHT22;8243;49.048;8.396;2024-01-07T10:18:25;5.50;99.90
16271;DHT22;8243;49.048;8.396;2024-01-07T10:20:52;5.50;99.90
16271;DHT22;8243;49.048;8.396;2024-01-07T10:23:20;5.30;99.90
16271;DHT22;8243;49.048;8.396;2024-01-07T10:25:46;5.70;99.90
16271;DHT22;8243;49.048;8.396;2024-01-07T10:28:12;5.60;99.90
16271;DHT22;8243;49.048;8.396;2024-01-07T10:30:39;5.50;99.90
16271;DHT22;8243;49.048;8.396;2024-01-07T10:33:07;5.50;99.90
16271;DHT22;8243;49.048;8.396;2024-01-07T10:35:35;5.50;99.90
16271;DHT22;8243;49.048;8.396;2024-01-07T10:38:02;5.70;99.90
16271;DHT22;8243;49.048;8.396;2024-01-07T10:40:29;5.40;99.90
16271;DHT22;8243;49.048;8.396;2024-01-07T10:42:55;5.40;99.90
16271;DHT22;8243;49.048;8.396;2024-01-07T10:45:22;5.50;99.90
16271;DHT22;8243;49.048;8.396;2024-01-07T10:47:49;5.40;99.90
16271;DHT22;8243;49.048;8.396;2024-01-07T10:50:16;5.10;99.90
16271;DHT22;8243;49.048;8.396;2024-01-07T10:52:43;5.30;99.90
16271;DHT22;8243;49.048;8.396;2024-01-07T10:55:14;5.20;99.90
16271;DHT22;8243;49.048;8.396;2024-01-07T10:57:44;5.20;99.90
16271;DHT22;8243;49.048;8.396;2024-01-07T11:00:16;5.20;99.90
16271;DHT22;8243;49.048;8.396;2024-01-07T11:11:39;4.90;99.90
16271;DHT22;8243;49.048;8.396;2024-01-07T11:14:39;4.80;99.90
16271;DHT22;8243;49.048;8.396;2024-01-07T11:17:08;4.80;99.90
16271;DHT22;8243;49.048;8.396;2024-01-07T11:19:35;5.00;99.90
16271;DHT22;8243;49.048;8.396;2024-01-07T11:24:49;4.80;99.90
16271;DHT22;8243;49.048;8.396;2024-01-07T11:27:16;4.80;99.90
16271;DHT22;8243;49.048;8.396;2024-01-07T11:29:41;4.70;99.90
16271;DHT22;8243;49.048;8.396;2024-01-07T11:32:07;4.80;99.90
16271;DHT22;8243;49.048;8.396;2024-01-07T11:34:42;4.60;99.90
16271;DHT22;8243;49.048;8.396;2024-01-07T11:37:11;4.80;99.90
16271;DHT22;8243;49.048;8.396;2024-01-07T11:39:37;4.80;99.90
16271;DHT22;8243;49.048;8.396;2024-01-07T11:42:03;4.80;99.30
16271;DHT22;8243;49.048;8.396;2024-01-07T11:44:29;4.90;99.20
16271;DHT22;8243;49.048;8.396;2024-01-07T11:46:55;4.80;98.50
16271;DHT22;8243;49.048;8.396;2024-01-07T11:49:21;4.70;99.50
16271;DHT22;8243;49.048;8.396;2024-01-07T11:51:47;4.80;97.50
16271;DHT22;8243;49.048;8.396;2024-01-07T11:54:12;4.80;97.30
16271;DHT22;8243;49.048;8.396;2024-01-07T11:56:39;4.60;96.30
16271;DHT22;8243;49.048;8.396;2024-01-07T11:59:05;5.00;96.20
16271;DHT22;8243;49.048;8.396;2024-01-07T12:01:31;4.80;96.40
16271;DHT22;8243;49.048;8.396;2024-01-07T12:03:57;4.70;96.30
16271;DHT22;8243;49.048;8.396;2024-01-07T12:06:22;4.80;96.60
16271;DHT22;8243;49.048;8.396;2024-01-07T12:08:49;4.90;95.80
16271;DHT22;8243;49.048;8.396;2024-01-07T12:11:16;4.70;96.10
16271;DHT22;8243;49.048;8.396;2024-01-07T12:13:42;4.90;96.30
16271;DHT22;8243;49.048;8.396;2024-01-07T12:16:08;4.90;96.60
16271;DHT22;8243;49.048;8.396;2024-01-07T12:18:38;4.80;95.40
16271;DHT22;8243;49.048;8.396;2024-01-07T12:21:04;4.80;95.30
16271;DHT22;8243;49.048;8.396;2024-01-07T12:23:37;5.00;96.10
16271;DHT22;8243;49.048;8.396;2024-01-07T12:26:12;4.80;96.80
16271;DHT22;8243;49.048;8.396;2024-01-07T12:28:38;4.90;98.40
16271;DHT22;8243;49.048;8.396;2024-01-07T12:31:05;4.80;99.90
16271;DHT22;8243;49.048;8.396;2024-01-07T12:33:31;4.80;99.90
16271;DHT22;8243;49.048;8.396;2024-01-07T12:35:57;4.90;99.90
16271;DHT22;8243;49.048;8.396;2024-01-07T12:38:27;4.60;99.90
16271;DHT22;8243;49.048;8.396;2024-01-07T12:40:53;4.70;99.90
16271;DHT22;8243;49.048;8.396;2024-01-07T12:43:19;4.70;99.90
16271;DHT22;8243;49.048;8.396;2024-01-07T12:45:44;4.80;99.90
16271;DHT22;8243;49.048;8.396;2024-01-07T12:48:12;4.90;99.90
16271;DHT22;8243;49.048;8.396;2024-01-07T12:50:37;4.60;99.90
16271;DHT22;8243;49.048;8.396;2024-01-07T12:53:03;4.40;99.90
16271;DHT22;8243;49.048;8.396;2024-01-07T12:55:28;4.50;99.90
16271;DHT22;8243;49.048;8.396;2024-01-07T12:57:55;4.50;99.90
16271;DHT22;8243;49.048;8.396;2024-01-07T13:00:20;4.60;99.90
16271;DHT22;8243;49.048;8.396;2024-01-07T13:02:46;4.70;99.90
16271;DHT22;8243;49.048;8.396;2024-01-07T13:05:12;4.50;99.60
16271;DHT22;8243;49.048;8.396;2024-01-07T13:07:38;4.30;98.90
16271;DHT22;8243;49.048;8.396;2024-01-07T13:10:04;4.50;98.50
16271;DHT22;8243;49.048;8.396;2024-01-07T13:12:29;4.30;98.60
16271;DHT22;8243;49.048;8.396;2024-01-07T13:14:55;4.30;97.90
16271;DHT22;8243;49.048;8.396;2024-01-07T13:17:20;4.30;97.80
16271;DHT22;8243;49.048;8.396;2024-01-07T13:19:46;4.10;98.20
16271;DHT22;8243;49.048;8.396;2024-01-07T13:22:11;4.10;98.90
16271;DHT22;8243;49.048;8.396;2024-01-07T13:24:37;4.40;99.60
16271;DHT22;8243;49.048;8.396;2024-01-07T13:27:03;4.20;99.90
16271;DHT22;8243;49.048;8.396;2024-01-07T13:29:29;4.10;99.80
16271;DHT22;8243;49.048;8.396;2024-01-07T13:31:54;4.30;99.90
16271;DHT22;8243;49.048;8.396;2024-01-07T13:34:20;4.10;99.60
16271;DHT22;8243;49.048;8.396;2024-01-07T13:36:45;4.10;99.80
16271;DHT22;8243;49.048;8.396;2024-01-07T13:39:12;4.10;99.30
16271;DHT22;8243;49.048;8.396;2024-01-07T13:41:37;4.10;99.80
16271;DHT22;8243;49.048;8.396;2024-01-07T13:44:03;4.30;99.50
16271;DHT22;8243;49.048;8.396;2024-01-07T13:46:29;4.10;99.50
16271;DHT22;8243;49.048;8.396;2024-01-07T13:48:57;4.10;99.30
16271;DHT22;8243;49.048;8.396;2024-01-07T13:51:23;4.10;99.30
16271;DHT22;8243;49.048;8.396;2024-01-07T13:53:48;4.10;99.30
16271;DHT22;8243;49.048;8.396;2024-01-07T13:56:14;3.90;99.20
16271;DHT22;8243;49.048;8.396;2024-01-07T13:58:39;4.20;98.90
16271;DHT22;8243;49.048;8.396;2024-01-07T14:01:05;4.20;98.80
16271;DHT22;8243;49.048;8.396;2024-01-07T14:03:31;4.10;98.60
16271;DHT22;8243;49.048;8.396;2024-01-07T14:05:58;3.90;98.70
16271;DHT22;8243;49.048;8.396;2024-01-07T14:08:24;4.00;98.10
16271;DHT22;8243;49.048;8.396;2024-01-07T14:10:49;4.00;98.70
16271;DHT22;8243;49.048;8.396;2024-01-07T14:13:15;3.80;98.40
16271;DHT22;8243;49.048;8.396;2024-01-07T14:15:42;3.90;98.10
16271;DHT22;8243;49.048;8.396;2024-01-07T14:18:07;4.00;97.90
16271;DHT22;8243;49.048;8.396;2024-01-07T14:20:35;3.80;96.70
16271;DHT22;8243;49.048;8.396;2024-01-07T14:23:01;3.80;96.80
16271;DHT22;8243;49.048;8.396;2024-01-07T14:25:26;3.70;97.40
16271;DHT22;8243;49.048;8.396;2024-01-07T14:27:52;3.90;97.00
16271;DHT22;8243;49.048;8.396;2024-01-07T14:30:18;3.70;96.90
16271;DHT22;8243;49.048;8.396;2024-01-07T14:32:43;3.70;96.90
16271;DHT22;8243;49.048;8.396;2024-01-07T14:35:11;3.60;97.20
16271;DHT22;8243;49.048;8.396;2024-01-07T14:37:38;3.70;97.20
16271;DHT22;8243;49.048;8.396;2024-01-07T14:40:06;3.80;97.20
16271;DHT22;8243;49.048;8.396;2024-01-07T14:42:31;3.70;98.10
16271;DHT22;8243;49.048;8.396;2024-01-07T14:44:57;3.60;98.30
16271;DHT22;8243;49.048;8.396;2024-01-07T14:47:22;3.80;98.80
16271;DHT22;8243;49.048;8.396;2024-01-07T14:49:48;3.70;99.20
16271;DHT22;8243;49.048;8.396;2024-01-07T14:52:14;3.50;98.80
16271;DHT22;8243;49.048;8.396;2024-01-07T14:54:40;3.60;98.30
16271;DHT22;8243;49.048;8.396;2024-01-07T14:57:05;3.60;99.00
16271;DHT22;8243;49.048;8.396;2024-01-07T14:59:34;3.60;99.20
16271;DHT22;8243;49.048;8.396;2024-01-07T15:02:01;3.60;98.60
16271;DHT22;8243;49.048;8.396;2024-01-07T15:04:26;3.60;97.80
16271;DHT22;8243;49.048;8.396;2024-01-07T15:06:52;3.20;96.40
16271;DHT22;8243;49.048;8.396;2024-01-07T15:09:18;3.30;96.00
16271;DHT22;8243;49.048;8.396;2024-01-07T15:11:43;3.40;94.60
16271;DHT22;8243;49.048;8.396;2024-01-07T15:14:12;3.40;94.60
16271;DHT22;8243;49.048;8.396;2024-01-07T15:16:38;3.40;94.70
16271;DHT22;8243;49.048;8.396;2024-01-07T15:19:03;3.40;95.20
16271;DHT22;8243;49.048;8.396;2024-01-07T15:21:29;3.40;95.80
16271;DHT22;8243;49.048;8.396;2024-01-07T15:23:58;3.10;95.30
16271;DHT22;8243;49.048;8.396;2024-01-07T15:26:27;3.20;95.60
16271;DHT22;8243;49.048;8.396;2024-01-07T15:29:03;3.20;96.40
16271;DHT22;8243;49.048;8.396;2024-01-07T15:31:29;3.30;95.80
16271;DHT22;8243;49.048;8.396;2024-01-07T15:33:57;3.10;94.30
16271;DHT22;8243;49.048;8.396;2024-01-07T15:36:25;3.00;94.20
16271;DHT22;8243;49.048;8.396;2024-01-07T15:38:51;3.10;94.60
16271;DHT22;8243;49.048;8.396;2024-01-07T15:41:16;3.10;94.50
16271;DHT22;8243;49.048;8.396;2024-01-07T15:43:42;3.00;94.70
16271;DHT22;8243;49.048;8.396;2024-01-07T15:46:07;3.00;94.20
16271;DHT22;8243;49.048;8.396;2024-01-07T15:48:33;2.90;94.00
16271;DHT22;8243;49.048;8.396;2024-01-07T15:50:59;3.20;94.90
16271;DHT22;8243;49.048;8.396;2024-01-07T15:53:24;3.00;93.40
16271;DHT22;8243;49.048;8.396;2024-01-07T15:56:01;3.00;94.10
16271;DHT22;8243;49.048;8.396;2024-01-07T15:58:28;3.00;93.80
16271;DHT22;8243;49.048;8.396;2024-01-07T16:00:59;2.90;93.80
16271;DHT22;8243;49.048;8.396;2024-01-07T16:03:26;3.00;93.80
16271;DHT22;8243;49.048;8.396;2024-01-07T16:05:52;2.70;93.10
16271;DHT22;8243;49.048;8.396;2024-01-07T16:08:18;2.80;92.90
16271;DHT22;8243;49.048;8.396;2024-01-07T16:10:45;2.90;93.00
16271;DHT22;8243;49.048;8.396;2024-01-07T16:13:10;2.90;92.80
16271;DHT22;8243;49.048;8.396;2024-01-07T16:15:36;2.80;92.10
16271;DHT22;8243;49.048;8.396;2024-01-07T16:18:01;2.80;92.40
16271;DHT22;8243;49.048;8.396;2024-01-07T16:20:27;2.70;91.90